Time;durP1;ratioP1;P1;durP2;ratioP2;P2;SDS_P1;SDS_P2;PMS_P1;PMS_P2;Temp;Humidity;BMP_temperature;BMP_pressure;BME280_temperature;BME280_humidity;BME280_pressure;Samples;Min_cycle;Max_cycle;Signal;HPM_P1;HPM_P2
2024/03/23 00:00:08;;;;;;;;;;;;;;;10.14;nan;100422.91;5166187;23;19930;-68
2024/03/23 00:02:19;;;;;;;;;;;;;;;10.14;nan;100420.19;5165995;23;19930;-68
2024/03/23 00:04:22;;;;;;;;;;;;;;;10.13;nan;100422.06;5166285;23;19943;-68
2024/03/23 00:06:26;;;;;;;;;;;;;;;10.12;nan;100416.84;5166507;22;19923;-67
2024/03/23 00:08:29;;;;;;;;;;;;;;;10.12;nan;100419.56;5166732;23;19926;-67
2024/03/23 00:10:35;;;;;;;;;;;;;;;10.11;nan;100416.03;5165941;23;19920;-68
2024/03/23 00:12:38;;;;;;;;;;;;;;;10.10;nan;100414.34;5165283;22;19930;-68
2024/03/23 00:14:41;;;;;;;;;;;;;;;10.10;nan;100417.03;5165853;22;19930;-67
2024/03/23 00:16:46;;;;;;;;;;;;;;;10.09;nan;100413.50;5165141;23;19923;-68
2024/03/23 00:18:51;;;;;;;;;;;;;;;10.08;nan;100411.81;5166228;23;19919;-67
2024/03/23 00:20:57;;;;;;;;;;;;;;;10.09;nan;100400.00;5165623;23;19919;-67
2024/03/23 00:23:00;;;;;;;;;;;;;;;10.09;nan;100408.13;5166128;23;19926;-67
2024/03/23 00:25:04;;;;;;;;;;;;;;;10.08;nan;100405.59;5166435;22;20255;-67
2024/03/23 00:27:09;;;;;;;;;;;;;;;10.06;nan;100419.28;5164669;23;19926;-67
2024/03/23 00:29:13;;;;;;;;;;;;;;;10.06;nan;100407.63;5165818;23;19923;-67
2024/03/23 00:31:16;;;;;;;;;;;;;;;10.06;nan;100405.78;5164933;23;20343;-67
2024/03/23 00:33:20;;;;;;;;;;;;;;;10.04;nan;100410.50;5166088;23;19919;-67
2024/03/23 00:35:24;;;;;;;;;;;;;;;10.04;nan;100404.25;5166379;23;19930;-68
2024/03/23 00:37:28;;;;;;;;;;;;;;;10.04;nan;100396.19;5166556;22;19927;-68
2024/03/23 00:39:31;;;;;;;;;;;;;;;10.02;nan;100395.53;5166380;23;19919;-67
2024/03/23 00:41:35;;;;;;;;;;;;;;;10.01;nan;100397.38;5165505;23;20279;-67
2024/03/23 00:43:39;;;;;;;;;;;;;;;10.00;nan;100387.63;5165601;22;19919;-68
2024/03/23 00:45:44;;;;;;;;;;;;;;;9.99;nan;100390.50;5165743;23;20328;-68
2024/03/23 00:47:47;;;;;;;;;;;;;;;9.98;nan;100378.00;5166110;23;19927;-68
2024/03/23 00:49:51;;;;;;;;;;;;;;;9.96;nan;100371.97;5165952;22;19924;-67
2024/03/23 00:51:54;;;;;;;;;;;;;;;9.93;nan;100371.28;5165149;23;19926;-68
2024/03/23 00:53:57;;;;;;;;;;;;;;;9.93;nan;100365.91;5166350;23;19929;-68
2024/03/23 00:55:59;;;;;;;;;;;;;;;9.91;nan;100361.72;5166324;23;19920;-68
2024/03/23 00:58:00;;;;;;;;;;;;;;;9.89;nan;100345.72;5166079;23;19930;-68
2024/03/23 01:00:02;;;;;;;;;;;;;;;9.87;nan;100346.91;5165100;23;19924;-68
2024/03/23 01:02:04;;;;;;;;;;;;;;;9.85;nan;100348.97;5164898;22;19923;-68
2024/03/23 01:04:06;;;;;;;;;;;;;;;9.84;nan;100350.84;5166521;22;20331;-68
2024/03/23 01:06:07;;;;;;;;;;;;;;;9.82;nan;100346.63;5166033;23;19924;-68
2024/03/23 01:08:09;;;;;;;;;;;;;;;9.81;nan;100345.81;5165284;23;19920;-68
2024/03/23 01:10:12;;;;;;;;;;;;;;;9.79;nan;100352.38;5165701;23;19929;-68
2024/03/23 01:12:14;;;;;;;;;;;;;;;9.77;nan;100340.94;5165556;23;19924;-68
2024/03/23 01:14:15;;;;;;;;;;;;;;;9.75;nan;100346.53;5165798;23;20364;-68
2024/03/23 01:16:16;;;;;;;;;;;;;;;9.74;nan;100339.44;5165581;23;20037;-68
2024/03/23 01:18:18;;;;;;;;;;;;;;;9.71;nan;100346.03;5166264;23;19930;-68
2024/03/23 01:20:19;;;;;;;;;;;;;;;9.70;nan;100338.13;5165602;23;19919;-68
2024/03/23 01:22:22;;;;;;;;;;;;;;;9.69;nan;100342.69;5165323;23;19923;-68
2024/03/23 01:24:23;;;;;;;;;;;;;;;9.67;nan;100339.34;5166083;23;19919;-68
2024/03/23 01:26:26;;;;;;;;;;;;;;;9.67;nan;100347.44;5166522;23;20425;-68
2024/03/23 01:28:28;;;;;;;;;;;;;;;9.66;nan;100337.66;5164963;23;19924;-68
2024/03/23 01:30:30;;;;;;;;;;;;;;;9.64;nan;100326.22;5166737;22;19919;-68
2024/03/23 01:32:31;;;;;;;;;;;;;;;9.63;nan;100326.41;5167094;23;19930;-68
2024/03/23 01:34:34;;;;;;;;;;;;;;;9.62;nan;100322.00;5165716;23;19952;-68
2024/03/23 01:36:35;;;;;;;;;;;;;;;9.60;nan;100314.09;5167781;22;19923;-68
2024/03/23 01:38:37;;;;;;;;;;;;;;;9.60;nan;100303.31;5166544;23;19942;-68
2024/03/23 01:40:38;;;;;;;;;;;;;;;9.59;nan;100296.25;5168417;22;19923;-69
2024/03/23 01:42:42;;;;;;;;;;;;;;;9.56;nan;100283.97;5168673;23;19923;-66
2024/03/23 01:44:43;;;;;;;;;;;;;;;9.58;nan;100283.81;5168122;23;19930;-67
2024/03/23 01:46:45;;;;;;;;;;;;;;;9.57;nan;100274.84;5166417;23;19925;-68
2024/03/23 01:48:46;;;;;;;;;;;;;;;9.57;nan;100271.31;5168849;22;19997;-68
2024/03/23 01:50:49;;;;;;;;;;;;;;;9.59;nan;100271.16;5168527;23;19946;-68
2024/03/23 01:52:50;;;;;;;;;;;;;;;9.56;nan;100266.94;5167275;23;19932;-68
2024/03/23 01:54:52;;;;;;;;;;;;;;;9.54;nan;100272.56;5168516;23;19930;-67
2024/03/23 01:56:53;;;;;;;;;;;;;;;9.54;nan;100274.38;5168430;23;19930;-67
2024/03/23 01:58:57;;;;;;;;;;;;;;;9.54;nan;100285.16;5166607;23;20373;-68
2024/03/23 02:00:58;;;;;;;;;;;;;;;9.52;nan;100276.44;5167941;22;19923;-68
2024/03/23 02:03:00;;;;;;;;;;;;;;;9.51;nan;100272.06;5168180;23;20774;-68
2024/03/23 02:05:02;;;;;;;;;;;;;;;9.50;nan;100273.91;5168727;22;19928;-68
2024/03/23 02:07:05;;;;;;;;;;;;;;;9.49;nan;100272.22;5166109;23;20369;-68
2024/03/23 02:09:06;;;;;;;;;;;;;;;9.48;nan;100273.28;5167899;22;19953;-68
2024/03/23 02:11:08;;;;;;;;;;;;;;;9.48;nan;100283.19;5168321;23;19923;-68
2024/03/23 02:13:10;;;;;;;;;;;;;;;9.47;nan;100287.75;5169421;23;19920;-67
2024/03/23 02:15:13;;;;;;;;;;;;;;;9.47;nan;100286.94;5170053;23;19927;-68
2024/03/23 02:17:14;;;;;;;;;;;;;;;9.46;nan;100277.16;5169403;23;19942;-68
2024/03/23 02:19:16;;;;;;;;;;;;;;;9.44;nan;100274.66;5169032;23;19923;-66
2024/03/23 02:21:18;;;;;;;;;;;;;;;9.44;nan;100269.25;5169772;23;20278;-68
2024/03/23 02:23:21;;;;;;;;;;;;;;;9.41;nan;100264.22;5169319;23;19926;-68
2024/03/23 02:25:22;;;;;;;;;;;;;;;9.39;nan;100266.28;5169150;23;19930;-68
2024/03/23 02:27:25;;;;;;;;;;;;;;;9.38;nan;100264.59;5168325;23;20366;-68
2024/03/23 02:29:26;;;;;;;;;;;;;;;9.37;nan;100263.75;5168657;22;20244;-67
2024/03/23 02:31:28;;;;;;;;;;;;;;;9.36;nan;100269.31;5168086;23;19924;-68
2024/03/23 02:33:29;;;;;;;;;;;;;;;9.35;nan;100259.56;5168948;23;20259;-68
2024/03/23 02:35:32;;;;;;;;;;;;;;;9.34;nan;100249.78;5169450;23;19920;-67
2024/03/23 02:37:33;;;;;;;;;;;;;;;9.32;nan;100244.56;5169370;23;19928;-68
2024/03/23 02:39:36;;;;;;;;;;;;;;;9.31;nan;100236.66;5167966;22;19924;-68
2024/03/23 02:41:38;;;;;;;;;;;;;;;9.29;nan;100233.31;5168188;23;19923;-68
2024/03/23 02:43:40;;;;;;;;;;;;;;;9.28;nan;100243.28;5169731;23;19926;-67
2024/03/23 02:45:41;;;;;;;;;;;;;;;9.27;nan;100236.19;5168223;23;19923;-68
2024/03/23 02:47:43;;;;;;;;;;;;;;;9.27;nan;100225.41;5168945;23;20380;-68
2024/03/23 02:49:44;;;;;;;;;;;;;;;9.25;nan;100221.22;5168712;23;19934;-68
2024/03/23 02:51:48;;;;;;;;;;;;;;;9.25;nan;100221.22;5168618;23;19920;-69
2024/03/23 02:53:49;;;;;;;;;;;;;;;9.22;nan;100206.28;5168912;22;19919;-68
2024/03/23 02:55:53;;;;;;;;;;;;;;;9.22;nan;100205.44;5169108;23;19919;-68
2024/03/23 02:57:54;;;;;;;;;;;;;;;9.20;nan;100202.94;5169220;23;19923;-68
2024/03/23 02:59:57;;;;;;;;;;;;;;;9.19;nan;100202.06;5168544;23;19933;-68
2024/03/23 03:01:59;;;;;;;;;;;;;;;9.17;nan;100212.19;5166452;23;19974;-68
2024/03/23 03:04:02;;;;;;;;;;;;;;;9.17;nan;100206.00;5168298;22;19951;-67
2024/03/23 03:06:03;;;;;;;;;;;;;;;9.16;nan;100209.69;5168907;23;19920;-68
2024/03/23 03:08:06;;;;;;;;;;;;;;;9.15;nan;100213.41;5166504;23;20614;-68
2024/03/23 03:10:10;;;;;;;;;;;;;;;9.15;nan;100210.69;5167545;22;20366;-68
2024/03/23 03:12:13;;;;;;;;;;;;;;;9.14;nan;100207.19;5165350;23;19929;-69
2024/03/23 03:14:15;;;;;;;;;;;;;;;9.14;nan;100209.03;5166454;23;19927;-68
2024/03/23 03:16:17;;;;;;;;;;;;;;;9.13;nan;100202.78;5169373;22;20358;-67
2024/03/23 03:18:18;;;;;;;;;;;;;;;9.12;nan;100200.28;5168427;23;20340;-66
2024/03/23 03:20:21;;;;;;;;;;;;;;;9.12;nan;100201.13;5167623;23;19919;-68
2024/03/23 03:22:23;;;;;;;;;;;;;;;9.11;nan;100198.63;5166994;22;19920;-69
2024/03/23 03:24:25;;;;;;;;;;;;;;;9.10;nan;100187.00;5166886;23;19923;-68
2024/03/23 03:26:28;;;;;;;;;;;;;;;9.10;nan;100183.47;5165668;23;19934;-68
2024/03/23 03:28:31;;;;;;;;;;;;;;;9.09;nan;100179.09;5166800;23;19924;-68
2024/03/23 03:30:33;;;;;;;;;;;;;;;9.08;nan;100180.13;5166279;23;19919;-68
2024/03/23 03:32:35;;;;;;;;;;;;;;;9.08;nan;100180.13;5167370;23;19925;-68
2024/03/23 03:34:37;;;;;;;;;;;;;;;9.07;nan;100175.75;5166609;23;19930;-68
2024/03/23 03:36:38;;;;;;;;;;;;;;;9.06;nan;100174.06;5168022;23;20249;-68
2024/03/23 03:38:40;;;;;;;;;;;;;;;9.05;nan;100169.72;5163204;23;19919;-68
2024/03/23 03:40:41;;;;;;;;;;;;;;;9.04;nan;100174.25;5161619;22;19923;-67
2024/03/23 03:42:44;;;;;;;;;;;;;;;9.04;nan;100170.72;5164564;23;19975;-66
2024/03/23 03:44:46;;;;;;;;;;;;;;;9.03;nan;100164.50;5164469;23;20389;-67
2024/03/23 03:46:49;;;;;;;;;;;;;;;9.03;nan;100161.81;5167145;22;19924;-68
2024/03/23 03:48:50;;;;;;;;;;;;;;;9.01;nan;100163.84;5166745;23;19920;-68
2024/03/23 03:50:52;;;;;;;;;;;;;;;9.01;nan;100171.91;5165645;23;20381;-67
2024/03/23 03:52:54;;;;;;;;;;;;;;;9.01;nan;100169.22;5166941;23;20339;-67
2024/03/23 03:55:00;;;;;;;;;;;;;;;9.00;nan;100176.47;5167295;23;20397;-68
2024/03/23 03:57:01;;;;;;;;;;;;;;;9.00;nan;100173.78;5167042;22;19924;-68
2024/03/23 03:59:04;;;;;;;;;;;;;;;8.99;nan;100166.69;5164459;23;20232;-68
2024/03/23 04:01:06;;;;;;;;;;;;;;;8.99;nan;100164.00;5166680;22;20282;-68
2024/03/23 04:03:09;;;;;;;;;;;;;;;8.97;nan;100160.66;5166786;22;19930;-68
2024/03/23 04:05:10;;;;;;;;;;;;;;;8.97;nan;100162.53;5167105;23;19920;-67
2024/03/23 04:07:12;;;;;;;;;;;;;;;8.97;nan;100160.66;5166343;23;19920;-69
2024/03/23 04:09:13;;;;;;;;;;;;;;;8.96;nan;100153.59;5167551;23;19920;-68
2024/03/23 04:11:15;;;;;;;;;;;;;;;8.95;nan;100151.94;5166312;23;19923;-69
2024/03/23 04:13:16;;;;;;;;;;;;;;;8.95;nan;100141.16;5166831;23;19924;-67
2024/03/23 04:15:18;;;;;;;;;;;;;;;8.95;nan;100140.31;5166289;23;19923;-69
2024/03/23 04:17:21;;;;;;;;;;;;;;;8.94;nan;100136.78;5166751;23;19920;-67
2024/03/23 04:19:24;;;;;;;;;;;;;;;8.94;nan;100133.28;5166323;22;19926;-65
2024/03/23 04:21:25;;;;;;;;;;;;;;;8.93;nan;100135.09;5165986;22;20255;-67
2024/03/23 04:23:27;;;;;;;;;;;;;;;8.94;nan;100139.50;5166844;23;19926;-68
2024/03/23 04:25:28;;;;;;;;;;;;;;;8.95;nan;100151.09;5166396;23;19942;-68
2024/03/23 04:27:31;;;;;;;;;;;;;;;8.93;nan;100139.66;5166294;22;19924;-68
2024/03/23 04:29:32;;;;;;;;;;;;;;;8.93;nan;100135.09;5165687;23;19930;-69
2024/03/23 04:31:34;;;;;;;;;;;;;;;8.92;nan;100135.28;5165908;23;19924;-68
2024/03/23 04:33:37;;;;;;;;;;;;;;;8.92;nan;100141.53;5166470;23;19930;-68
2024/03/23 04:35:39;;;;;;;;;;;;;;;8.92;nan;100146.91;5167048;23;19919;-68
2024/03/23 04:37:41;;;;;;;;;;;;;;;8.90;nan;100148.94;5166338;23;19920;-66
2024/03/23 04:39:42;;;;;;;;;;;;;;;8.91;nan;100153.31;5166088;23;20251;-67
2024/03/23 04:41:45;;;;;;;;;;;;;;;8.90;nan;100148.94;5165079;23;20344;-68
2024/03/23 04:43:46;;;;;;;;;;;;;;;8.89;nan;100139.19;5166448;23;19919;-68
2024/03/23 04:45:48;;;;;;;;;;;;;;;8.89;nan;100130.28;5165742;23;20316;-67
2024/03/23 04:47:49;;;;;;;;;;;;;;;8.88;nan;100128.59;5166111;23;19945;-68
2024/03/23 04:49:53;;;;;;;;;;;;;;;8.86;nan;100126.09;5166284;23;19923;-67
2024/03/23 04:51:54;;;;;;;;;;;;;;;8.86;nan;100114.50;5165937;23;19943;-68
2024/03/23 04:53:56;;;;;;;;;;;;;;;8.83;nan;100110.28;5165985;23;19919;-68
2024/03/23 04:55:59;;;;;;;;;;;;;;;8.83;nan;100102.22;5166606;23;19928;-68
2024/03/23 04:58:01;;;;;;;;;;;;;;;8.82;nan;100105.91;5166464;23;19929;-68
2024/03/23 05:00:04;;;;;;;;;;;;;;;8.80;nan;100098.03;5165615;23;19923;-68
2024/03/23 05:02:06;;;;;;;;;;;;;;;8.80;nan;100089.13;5165494;23;19920;-67
2024/03/23 05:04:07;;;;;;;;;;;;;;;8.79;nan;100095.50;5166320;23;19924;-68
2024/03/23 05:06:11;;;;;;;;;;;;;;;8.78;nan;100107.31;5166495;22;19919;-68
2024/03/23 05:08:12;;;;;;;;;;;;;;;8.78;nan;100093.84;5166558;23;19929;-68
2024/03/23 05:10:14;;;;;;;;;;;;;;;8.76;nan;100104.81;5165476;23;19920;-67
2024/03/23 05:12:16;;;;;;;;;;;;;;;8.76;nan;100098.56;5165878;23;19923;-68
2024/03/23 05:14:18;;;;;;;;;;;;;;;8.75;nan;100102.28;5166835;23;20251;-68
2024/03/23 05:16:19;;;;;;;;;;;;;;;8.74;nan;100104.13;5166714;23;19930;-68
2024/03/23 05:18:21;;;;;;;;;;;;;;;8.73;nan;100099.78;5165929;23;19925;-68
2024/03/23 05:20:22;;;;;;;;;;;;;;;8.73;nan;100098.94;5165979;23;20225;-68
2024/03/23 05:22:27;;;;;;;;;;;;;;;8.74;nan;100106.00;5166019;23;19919;-67
2024/03/23 05:24:28;;;;;;;;;;;;;;;8.72;nan;100102.66;5166389;23;19927;-68
2024/03/23 05:26:30;;;;;;;;;;;;;;;8.72;nan;100098.09;5166433;23;20323;-69
2024/03/23 05:28:32;;;;;;;;;;;;;;;8.71;nan;100096.41;5166655;23;19925;-68
2024/03/23 05:30:34;;;;;;;;;;;;;;;8.70;nan;100091.22;5165894;23;19925;-68
2024/03/23 05:32:35;;;;;;;;;;;;;;;8.68;nan;100086.00;5164360;23;20017;-69
2024/03/23 05:34:37;;;;;;;;;;;;;;;8.66;nan;100088.88;5166414;22;20298;-68
2024/03/23 05:36:38;;;;;;;;;;;;;;;8.65;nan;100080.97;5166129;23;19923;-68
2024/03/23 05:38:42;;;;;;;;;;;;;;;8.64;nan;100073.94;5167286;23;20260;-68
2024/03/23 05:40:47;;;;;;;;;;;;;;;8.62;nan;100071.44;5165282;23;20243;-68
2024/03/23 05:42:52;;;;;;;;;;;;;;;8.62;nan;100073.25;5167033;22;20145;-68
2024/03/23 05:44:54;;;;;;;;;;;;;;;8.61;nan;100069.75;5166224;22;19919;-68
2024/03/23 05:46:56;;;;;;;;;;;;;;;8.61;nan;100066.22;5166316;22;19923;-68
2024/03/23 05:48:58;;;;;;;;;;;;;;;8.60;nan;100061.84;5166352;23;19926;-68
2024/03/23 05:51:02;;;;;;;;;;;;;;;8.58;nan;100056.66;5165787;22;19924;-67
2024/03/23 05:53:05;;;;;;;;;;;;;;;8.58;nan;100059.34;5166231;23;19924;-69
2024/03/23 05:55:09;;;;;;;;;;;;;;;8.56;nan;100050.63;5166685;22;19926;-69
2024/03/23 05:57:12;;;;;;;;;;;;;;;8.55;nan;100042.72;5165836;23;19924;-69
2024/03/23 05:59:14;;;;;;;;;;;;;;;8.56;nan;100052.47;5165717;23;19930;-68
2024/03/23 06:01:15;;;;;;;;;;;;;;;8.54;nan;100052.66;5165146;23;19920;-68
2024/03/23 06:03:17;;;;;;;;;;;;;;;8.54;nan;100049.13;5164639;23;19970;-69
2024/03/23 06:05:18;;;;;;;;;;;;;;;8.53;nan;100042.09;5164854;22;20224;-70
2024/03/23 06:07:21;;;;;;;;;;;;;;;8.52;nan;100026.94;5164086;23;19919;-68
2024/03/23 06:09:22;;;;;;;;;;;;;;;8.52;nan;100021.56;5165734;22;20267;-68
2024/03/23 06:11:26;;;;;;;;;;;;;;;8.50;nan;100016.34;5165748;23;20360;-67
2024/03/23 06:13:29;;;;;;;;;;;;;;;8.51;nan;100018.03;5165500;23;20336;-68
2024/03/23 06:15:32;;;;;;;;;;;;;;;8.50;nan;100010.16;5165282;22;19926;-69
2024/03/23 06:17:33;;;;;;;;;;;;;;;8.49;nan;99995.84;5167483;23;20227;-68
2024/03/23 06:19:35;;;;;;;;;;;;;;;8.50;nan;99999.38;5167295;23;19923;-68
2024/03/23 06:21:37;;;;;;;;;;;;;;;8.49;nan;99995.84;5166599;23;19920;-69
2024/03/23 06:23:39;;;;;;;;;;;;;;;8.49;nan;99987.75;5167279;23;19924;-68
2024/03/23 06:25:40;;;;;;;;;;;;;;;8.47;nan;99977.16;5167355;23;20395;-68
2024/03/23 06:27:43;;;;;;;;;;;;;;;8.49;nan;99998.53;5167558;23;20351;-68
2024/03/23 06:29:44;;;;;;;;;;;;;;;8.50;nan;100000.22;5166893;23;19923;-69
2024/03/23 06:31:53;;;;;;;;;;;;;;;8.46;nan;99997.06;5166738;23;19920;-69
2024/03/23 06:33:55;;;;;;;;;;;;;;;8.51;nan;99992.97;5167325;23;19920;-68
2024/03/23 06:35:57;;;;;;;;;;;;;;;8.50;nan;100002.06;5167787;23;19924;-68
2024/03/23 06:37:58;;;;;;;;;;;;;;;8.50;nan;99991.31;5167580;23;19924;-69
2024/03/23 06:40:00;;;;;;;;;;;;;;;8.49;nan;99974.31;5166410;23;20354;-68
2024/03/23 06:42:02;;;;;;;;;;;;;;;8.50;nan;99973.28;5166653;23;19927;-69
2024/03/23 06:44:05;;;;;;;;;;;;;;;8.51;nan;99976.81;5167514;23;19919;-68
2024/03/23 06:46:06;;;;;;;;;;;;;;;8.51;nan;99974.13;5166961;23;20247;-68
2024/03/23 06:48:09;;;;;;;;;;;;;;;8.51;nan;99980.34;5167246;23;20255;-68
2024/03/23 06:50:10;;;;;;;;;;;;;;;8.52;nan;99981.19;5166624;23;19923;-68
2024/03/23 06:52:12;;;;;;;;;;;;;;;8.52;nan;99982.00;5167293;23;20263;-68
2024/03/23 06:54:13;;;;;;;;;;;;;;;8.51;nan;99985.75;5167232;22;20382;-69
2024/03/23 06:56:15;;;;;;;;;;;;;;;8.52;nan;99978.50;5165036;23;19920;-68
2024/03/23 06:58:17;;;;;;;;;;;;;;;8.52;nan;99975.81;5167149;22;20355;-68
2024/03/23 07:00:20;;;;;;;;;;;;;;;8.52;nan;99973.94;5166947;23;19924;-68
2024/03/23 07:02:22;;;;;;;;;;;;;;;8.53;nan;99972.09;5167106;23;19966;-68
2024/03/23 07:04:24;;;;;;;;;;;;;;;8.52;nan;99967.72;5167078;23;19934;-68
2024/03/23 07:06:25;;;;;;;;;;;;;;;8.54;nan;99963.84;5167480;23;19927;-68
2024/03/23 07:08:27;;;;;;;;;;;;;;;8.54;nan;99955.78;5167127;22;19941;-68
2024/03/23 07:10:29;;;;;;;;;;;;;;;8.53;nan;99954.09;5166303;23;19924;-68
2024/03/23 07:12:31;;;;;;;;;;;;;;;8.54;nan;99955.78;5166108;23;19938;-67
2024/03/23 07:14:34;;;;;;;;;;;;;;;8.53;nan;99961.34;5165801;22;20497;-68
2024/03/23 07:16:37;;;;;;;;;;;;;;;8.55;nan;99956.59;5167004;23;19923;-68
2024/03/23 07:18:38;;;;;;;;;;;;;;;8.54;nan;99952.22;5166684;23;19920;-68
2024/03/23 07:20:41;;;;;;;;;;;;;;;8.55;nan;99960.13;5166123;23;19924;-65
2024/03/23 07:22:42;;;;;;;;;;;;;;;8.55;nan;99961.97;5166777;23;20245;-67
2024/03/23 07:24:44;;;;;;;;;;;;;;;8.55;nan;99954.72;5167133;23;19919;-69
2024/03/23 07:26:46;;;;;;;;;;;;;;;8.55;nan;99946.66;5166779;23;19924;-68
2024/03/23 07:28:49;;;;;;;;;;;;;;;8.56;nan;99947.50;5166824;23;19938;-68
2024/03/23 07:31:00;;;;;;;;;;;;;;;8.56;nan;99951.03;5163962;23;19934;-68
2024/03/23 07:33:04;;;;;;;;;;;;;;;8.56;nan;99950.22;5166424;22;19919;-69
2024/03/23 07:35:05;;;;;;;;;;;;;;;8.56;nan;99945.66;5166728;23;19923;-69
2024/03/23 07:37:07;;;;;;;;;;;;;;;8.58;nan;99946.28;5166499;23;19923;-68
2024/03/23 07:39:08;;;;;;;;;;;;;;;8.57;nan;99944.59;5167180;23;20369;-68
2024/03/23 07:41:11;;;;;;;;;;;;;;;8.56;nan;99945.66;5165538;23;19926;-69
2024/03/23 07:43:12;;;;;;;;;;;;;;;8.57;nan;99944.59;5166444;23;19930;-69
2024/03/23 07:45:14;;;;;;;;;;;;;;;8.57;nan;99952.69;5166509;23;19926;-69
2024/03/23 07:47:15;;;;;;;;;;;;;;;8.58;nan;99945.47;5165706;23;19920;-68
2024/03/23 07:49:19;;;;;;;;;;;;;;;8.58;nan;99946.28;5166207;23;19919;-70
2024/03/23 07:51:21;;;;;;;;;;;;;;;8.57;nan;99939.22;5165672;23;19928;-70
2024/03/23 07:53:23;;;;;;;;;;;;;;;8.58;nan;99940.09;5166519;23;20319;-69
2024/03/23 07:55:24;;;;;;;;;;;;;;;8.57;nan;99939.22;5166489;23;19924;-69
2024/03/23 07:57:26;;;;;;;;;;;;;;;8.57;nan;99933.84;5166286;23;19920;-69
2024/03/23 07:59:28;;;;;;;;;;;;;;;8.57;nan;99933.84;5165922;23;19919;-69
2024/03/23 08:01:30;;;;;;;;;;;;;;;8.58;nan;99932.00;5164928;22;19920;-69
2024/03/23 08:03:31;;;;;;;;;;;;;;;8.58;nan;99929.31;5166297;23;19926;-68
2024/03/23 08:05:35;;;;;;;;;;;;;;;8.59;nan;99929.13;5166282;23;19939;-69
2024/03/23 08:07:36;;;;;;;;;;;;;;;8.58;nan;99923.94;5166428;23;19946;-69
2024/03/23 08:09:38;;;;;;;;;;;;;;;8.57;nan;99920.38;5165610;23;19926;-68
2024/03/23 08:11:47;;;;;;;;;;;;;;;8.56;nan;99918.72;5166100;23;19930;-69
2024/03/23 08:13:52;;;;;;;;;;;;;;;8.55;nan;99922.44;5166388;22;19923;-68
2024/03/23 08:15:56;;;;;;;;;;;;;;;8.55;nan;99908.97;5166837;23;19946;-68
2024/03/23 08:18:01;;;;;;;;;;;;;;;8.56;nan;99909.84;5164741;23;19931;-69
2024/03/23 08:20:03;;;;;;;;;;;;;;;8.55;nan;99908.97;5165465;23;19923;-69
2024/03/23 08:22:10;;;;;;;;;;;;;;;8.54;nan;99901.94;5166412;23;19920;-69
2024/03/23 08:24:11;;;;;;;;;;;;;;;8.48;nan;99900.81;5166475;23;19924;-69
2024/03/23 08:26:14;;;;;;;;;;;;;;;8.54;nan;99904.63;5166453;23;19943;-68
2024/03/23 08:28:15;;;;;;;;;;;;;;;8.52;nan;99903.97;5166473;23;20243;-70
2024/03/23 08:30:17;;;;;;;;;;;;;;;8.52;nan;99909.34;5166109;23;19942;-69
2024/03/23 08:32:18;;;;;;;;;;;;;;;8.52;nan;99909.34;5165534;23;19930;-69
2024/03/23 08:34:20;;;;;;;;;;;;;;;8.52;nan;99903.13;5165441;23;19926;-69
2024/03/23 08:36:24;;;;;;;;;;;;;;;8.51;nan;99905.00;5163783;23;20365;-70
2024/03/23 08:38:28;;;;;;;;;;;;;;;8.52;nan;99897.75;5166033;22;20308;-70
2024/03/23 08:40:29;;;;;;;;;;;;;;;8.52;nan;99901.28;5164777;23;19920;-69
2024/03/23 08:42:34;;;;;;;;;;;;;;;8.51;nan;99893.38;5165490;22;20446;-68
2024/03/23 08:44:36;;;;;;;;;;;;;;;8.52;nan;99897.75;5166402;23;19924;-69
2024/03/23 08:46:40;;;;;;;;;;;;;;;8.51;nan;99893.38;5165409;23;20343;-68
2024/03/23 08:48:43;;;;;;;;;;;;;;;8.50;nan;99900.63;5166274;23;19927;-67
2024/03/23 08:50:45;;;;;;;;;;;;;;;8.50;nan;99894.41;5164728;22;20184;-69
2024/03/23 08:52:46;;;;;;;;;;;;;;;8.48;nan;99897.28;5166030;23;19919;-68
2024/03/23 08:54:53;;;;;;;;;;;;;;;8.49;nan;99901.63;5166229;23;19919;-68
2024/03/23 08:56:54;;;;;;;;;;;;;;;8.47;nan;99895.63;5165596;23;19924;-69
2024/03/23 08:58:56;;;;;;;;;;;;;;;8.47;nan;99895.63;5165641;23;20344;-69
2024/03/23 09:01:03;;;;;;;;;;;;;;;8.46;nan;99891.25;5165686;23;19945;-68
2024/03/23 09:03:05;;;;;;;;;;;;;;;8.45;nan;99887.72;5163478;23;20306;-69
2024/03/23 09:05:07;;;;;;;;;;;;;;;8.45;nan;99898.50;5162562;22;19924;-68
2024/03/23 09:07:09;;;;;;;;;;;;;;;8.44;nan;99898.66;5165281;23;19926;-67
2024/03/23 09:09:14;;;;;;;;;;;;;;;8.44;nan;99904.06;5165413;23;19934;-68
2024/03/23 09:11:18;;;;;;;;;;;;;;;8.43;nan;99897.84;5164620;22;19945;-68
2024/03/23 09:13:19;;;;;;;;;;;;;;;8.42;nan;99901.50;5165553;23;19927;-69
2024/03/23 09:15:22;;;;;;;;;;;;;;;8.43;nan;99907.72;5165204;23;20292;-68
2024/03/23 09:17:23;;;;;;;;;;;;;;;8.43;nan;99914.00;5165607;23;19930;-68
2024/03/23 09:19:27;;;;;;;;;;;;;;;8.41;nan;99921.34;5166367;23;20266;-68
2024/03/23 09:21:29;;;;;;;;;;;;;;;8.38;nan;99913.66;5165353;23;19929;-69
2024/03/23 09:23:31;;;;;;;;;;;;;;;8.36;nan;99915.69;5164692;23;20452;-69
2024/03/23 09:25:33;;;;;;;;;;;;;;;8.34;nan;99919.56;5166426;22;19923;-68
2024/03/23 09:27:36;;;;;;;;;;;;;;;8.30;nan;99914.56;5165136;23;19926;-68
2024/03/23 09:29:38;;;;;;;;;;;;;;;8.29;nan;99923.66;5165013;22;19923;-69
2024/03/23 09:31:42;;;;;;;;;;;;;;;8.28;nan;99929.22;5164739;23;19945;-68
2024/03/23 09:33:45;;;;;;;;;;;;;;;8.27;nan;99922.16;5163388;23;19924;-71
2024/03/23 09:35:47;;;;;;;;;;;;;;;8.25;nan;99919.66;5164929;22;19919;-68
2024/03/23 09:37:49;;;;;;;;;;;;;;;8.23;nan;99937.03;5166008;23;20606;-69
2024/03/23 09:39:51;;;;;;;;;;;;;;;8.19;nan;99941.91;5165727;23;19926;-68
2024/03/23 09:41:57;;;;;;;;;;;;;;;8.17;nan;99935.06;5165972;22;19923;-69
2024/03/23 09:44:01;;;;;;;;;;;;;;;8.15;nan;99943.31;5165360;23;19930;-69
2024/03/23 09:46:03;;;;;;;;;;;;;;;8.12;nan;99940.97;5166686;23;19930;-68
2024/03/23 09:48:05;;;;;;;;;;;;;;;8.10;nan;99941.16;5137238;23;19920;-68
2024/03/23 09:50:09;;;;;;;;;;;;;;;8.06;nan;99961.34;5167359;22;19930;-69
2024/03/23 09:52:10;;;;;;;;;;;;;;;8.04;nan;99963.38;5167943;22;19930;-69
2024/03/23 09:54:13;;;;;;;;;;;;;;;8.01;nan;99969.13;5166875;23;19924;-68
2024/03/23 09:56:14;;;;;;;;;;;;;;;7.99;nan;99979.19;5166139;23;19923;-69
2024/03/23 09:58:19;;;;;;;;;;;;;;;7.97;nan;99983.94;5165961;23;20259;-69
2024/03/23 10:00:22;;;;;;;;;;;;;;;7.95;nan;99985.97;5166528;23;19927;-68
2024/03/23 10:02:25;;;;;;;;;;;;;;;7.92;nan;99995.22;5166498;22;19929;-67
2024/03/23 10:04:36;;;;;;;;;;;;;;;7.90;nan;100009.88;5164104;23;20209;-67
2024/03/23 10:06:38;;;;;;;;;;;;;;;7.88;nan;100015.44;5165121;22;19930;-68
2024/03/23 10:08:39;;;;;;;;;;;;;;;7.85;nan;100021.16;5165621;23;20484;-66
2024/03/23 10:10:40;;;;;;;;;;;;;;;7.84;nan;100016.78;5165539;23;20255;-66
2024/03/23 10:12:44;;;;;;;;;;;;;;;7.82;nan;100015.28;5165553;23;20205;-67
2024/03/23 10:14:46;;;;;;;;;;;;;;;7.79;nan;100021.00;5166631;23;19923;-67
2024/03/23 10:16:50;;;;;;;;;;;;;;;7.76;nan;100011.47;5166090;22;19923;-69
2024/03/23 10:18:51;;;;;;;;;;;;;;;7.75;nan;100025.91;5166772;23;19930;-66
2024/03/23 10:21:07;;;;;;;;;;;;;;;7.74;nan;100024.22;5165679;22;20251;-68
2024/03/23 10:23:10;;;;;;;;;;;;;;;7.71;nan;100019.19;5166140;23;19923;-68
2024/03/23 10:25:13;;;;;;;;;;;;;;;7.69;nan;100015.84;5164292;23;19928;-69
2024/03/23 10:27:15;;;;;;;;;;;;;;;7.69;nan;100021.22;5166043;22;19919;-67
2024/03/23 10:29:17;;;;;;;;;;;;;;;7.67;nan;100026.78;5165773;23;19928;-67
2024/03/23 10:31:19;;;;;;;;;;;;;;;7.66;nan;100018.91;5165712;23;19923;-68
2024/03/23 10:33:23;;;;;;;;;;;;;;;7.65;nan;100028.81;5166879;23;19919;-68
2024/03/23 10:35:25;;;;;;;;;;;;;;;7.63;nan;100030.00;5166242;23;19920;-68
2024/03/23 10:37:27;;;;;;;;;;;;;;;7.61;nan;100040.91;5165708;23;19919;-68
2024/03/23 10:39:30;;;;;;;;;;;;;;;7.60;nan;100038.41;5166113;23;19934;-68
2024/03/23 10:41:33;;;;;;;;;;;;;;;7.59;nan;100051.03;5163783;23;19934;-69
2024/03/23 10:43:34;;;;;;;;;;;;;;;7.57;nan;100047.69;5164923;22;19919;-70
2024/03/23 10:45:36;;;;;;;;;;;;;;;7.55;nan;100045.16;5165670;23;19930;-67
2024/03/23 10:47:37;;;;;;;;;;;;;;;7.54;nan;100038.09;5165992;23;19919;-67
2024/03/23 10:49:41;;;;;;;;;;;;;;;7.53;nan;100047.16;5165772;23;19930;-69
2024/03/23 10:51:42;;;;;;;;;;;;;;;7.52;nan;100050.88;5165421;23;20365;-67
2024/03/23 10:53:44;;;;;;;;;;;;;;;7.51;nan;100048.38;5165515;23;19920;-68
2024/03/23 10:55:48;;;;;;;;;;;;;;;7.51;nan;100051.06;5166713;23;19924;-68